sensor_id;sensor_type;location;lat;lon;timestamp;temperature;humidity
53599;DHT22;39485;45.702;11.364;2022-07-29T00:01:48;20.90;99.90
53599;DHT22;39485;45.702;11.364;2022-07-29T00:04:14;20.70;99.90
53599;DHT22;39485;45.702;11.364;2022-07-29T00:06:40;20.60;99.90
53599;DHT22;39485;45.702;11.364;2022-07-29T00:09:06;20.60;99.90
53599;DHT22;39485;45.702;11.364;2022-07-29T00:11:32;20.50;99.90
53599;DHT22;39485;45.702;11.364;2022-07-29T00:13:57;20.40;99.90
53599;DHT22;39485;45.702;11.364;2022-07-29T00:16:23;20.30;99.90
53599;DHT22;39485;45.702;11.364;2022-07-29T00:18:49;20.30;99.90
53599;DHT22;39485;45.702;11.364;2022-07-29T00:21:14;20.20;99.90
53599;DHT22;39485;45.702;11.364;2022-07-29T00:23:40;20.20;99.90
53599;DHT22;39485;45.702;11.364;2022-07-29T00:26:06;20.20;99.90
53599;DHT22;39485;45.702;11.364;2022-07-29T00:28:31;20.20;99.90
53599;DHT22;39485;45.702;11.364;2022-07-29T00:30:57;20.10;99.90
53599;DHT22;39485;45.702;11.364;2022-07-29T00:33:23;20.10;99.90
53599;DHT22;39485;45.702;11.364;2022-07-29T00:35:49;20.00;99.90
53599;DHT22;39485;45.702;11.364;2022-07-29T00:38:17;20.00;99.90
53599;DHT22;39485;45.702;11.364;2022-07-29T00:40:44;19.90;99.90
53599;DHT22;39485;45.702;11.364;2022-07-29T00:43:11;19.90;99.90
53599;DHT22;39485;45.702;11.364;2022-07-29T00:45:38;19.90;99.90
53599;DHT22;39485;45.702;11.364;2022-07-29T00:48:04;19.90;99.90
53599;DHT22;39485;45.702;11.364;2022-07-29T00:50:31;19.80;99.90
53599;DHT22;39485;45.702;11.364;2022-07-29T00:52:58;19.90;99.90
53599;DHT22;39485;45.702;11.364;2022-07-29T00:55:23;19.80;99.90
53599;DHT22;39485;45.702;11.364;2022-07-29T00:57:49;19.90;99.90
53599;DHT22;39485;45.702;11.364;2022-07-29T01:00:20;19.90;99.90
53599;DHT22;39485;45.702;11.364;2022-07-29T01:02:47;19.90;99.90
53599;DHT22;39485;45.702;11.364;2022-07-29T01:05:21;19.90;99.90
53599;DHT22;39485;45.702;11.364;2022-07-29T01:07:49;20.00;99.90
53599;DHT22;39485;45.702;11.364;2022-07-29T01:10:18;19.90;99.90
53599;DHT22;39485;45.702;11.364;2022-07-29T01:12:46;20.00;99.90
53599;DHT22;39485;45.702;11.364;2022-07-29T01:15:13;20.00;99.90
53599;DHT22;39485;45.702;11.364;2022-07-29T01:25:46;20.00;99.90
53599;DHT22;39485;45.702;11.364;2022-07-29T01:30:58;20.10;99.90
53599;DHT22;39485;45.702;11.364;2022-07-29T01:33:27;20.10;99.90
53599;DHT22;39485;45.702;11.364;2022-07-29T01:36:16;20.10;99.90
53599;DHT22;39485;45.702;11.364;2022-07-29T01:38:46;20.20;99.90
53599;DHT22;39485;45.702;11.364;2022-07-29T01:41:17;20.10;99.90
53599;DHT22;39485;45.702;11.364;2022-07-29T01:43:57;20.20;99.90
53599;DHT22;39485;45.702;11.364;2022-07-29T01:46:35;20.20;99.90
53599;DHT22;39485;45.702;11.364;2022-07-29T01:49:08;20.20;99.90
53599;DHT22;39485;45.702;11.364;2022-07-29T01:54:35;20.10;99.90
53599;DHT22;39485;45.702;11.364;2022-07-29T01:57:02;20.10;99.90
53599;DHT22;39485;45.702;11.364;2022-07-29T01:59:29;20.00;99.90
53599;DHT22;39485;45.702;11.364;2022-07-29T02:01:58;20.00;99.90
53599;DHT22;39485;45.702;11.364;2022-07-29T02:04:26;20.00;99.90
53599;DHT22;39485;45.702;11.364;2022-07-29T02:06:54;20.00;99.90
53599;DHT22;39485;45.702;11.364;2022-07-29T02:09:22;20.00;99.90
53599;DHT22;39485;45.702;11.364;2022-07-29T02:11:52;20.00;99.90
53599;DHT22;39485;45.702;11.364;2022-07-29T02:14:20;20.00;99.90
53599;DHT22;39485;45.702;11.364;2022-07-29T02:16:48;20.00;99.90
53599;DHT22;39485;45.702;11.364;2022-07-29T02:19:17;19.90;99.90
53599;DHT22;39485;45.702;11.364;2022-07-29T02:21:44;19.90;99.90
53599;DHT22;39485;45.702;11.364;2022-07-29T02:24:11;19.90;99.90
53599;DHT22;39485;45.702;11.364;2022-07-29T02:26:40;19.90;99.90
53599;DHT22;39485;45.702;11.364;2022-07-29T02:29:08;19.90;99.90
53599;DHT22;39485;45.702;11.364;2022-07-29T02:31:35;19.90;99.90
53599;DHT22;39485;45.702;11.364;2022-07-29T02:34:03;19.90;99.90
53599;DHT22;39485;45.702;11.364;2022-07-29T02:36:31;19.90;99.90
53599;DHT22;39485;45.702;11.364;2022-07-29T02:38:59;19.90;99.90
53599;DHT22;39485;45.702;11.364;2022-07-29T02:41:30;19.90;99.90
53599;DHT22;39485;45.702;11.364;2022-07-29T02:44:03;19.90;99.90
53599;DHT22;39485;45.702;11.364;2022-07-29T02:46:32;19.90;99.90
53599;DHT22;39485;45.702;11.364;2022-07-29T02:49:38;19.90;99.90
53599;DHT22;39485;45.702;11.364;2022-07-29T02:52:12;20.00;99.90
53599;DHT22;39485;45.702;11.364;2022-07-29T02:54:54;20.00;99.90
53599;DHT22;39485;45.702;11.364;2022-07-29T02:57:32;20.00;99.90
53599;DHT22;39485;45.702;11.364;2022-07-29T03:00:03;20.10;99.90
53599;DHT22;39485;45.702;11.364;2022-07-29T03:02:34;20.10;99.90
53599;DHT22;39485;45.702;11.364;2022-07-29T03:05:02;20.10;99.90
53599;DHT22;39485;45.702;11.364;2022-07-29T03:07:29;20.10;99.90
53599;DHT22;39485;45.702;11.364;2022-07-29T03:09:55;20.10;99.90
53599;DHT22;39485;45.702;11.364;2022-07-29T03:12:22;20.00;99.90
53599;DHT22;39485;45.702;11.364;2022-07-29T03:14:49;20.00;99.90
53599;DHT22;39485;45.702;11.364;2022-07-29T03:17:15;20.00;99.90
53599;DHT22;39485;45.702;11.364;2022-07-29T03:19:47;19.90;99.90
53599;DHT22;39485;45.702;11.364;2022-07-29T03:22:14;19.90;99.90
53599;DHT22;39485;45.702;11.364;2022-07-29T03:24:40;19.90;99.90
53599;DHT22;39485;45.702;11.364;2022-07-29T03:27:05;19.80;99.90
53599;DHT22;39485;45.702;11.364;2022-07-29T03:29:31;19.80;99.90
53599;DHT22;39485;45.702;11.364;2022-07-29T03:31:57;19.80;99.90
53599;DHT22;39485;45.702;11.364;2022-07-29T03:34:23;19.80;99.90
53599;DHT22;39485;45.702;11.364;2022-07-29T03:36:49;19.80;99.90
53599;DHT22;39485;45.702;11.364;2022-07-29T03:39:17;19.80;99.90
53599;DHT22;39485;45.702;11.364;2022-07-29T03:41:46;19.80;99.90
53599;DHT22;39485;45.702;11.364;2022-07-29T03:44:14;19.80;99.90
53599;DHT22;39485;45.702;11.364;2022-07-29T03:46:41;19.80;99.90
53599;DHT22;39485;45.702;11.364;2022-07-29T03:49:08;19.80;99.90
53599;DHT22;39485;45.702;11.364;2022-07-29T03:51:35;19.80;99.90
53599;DHT22;39485;45.702;11.364;2022-07-29T03:54:02;19.80;99.90
53599;DHT22;39485;45.702;11.364;2022-07-29T03:56:29;19.70;99.90
53599;DHT22;39485;45.702;11.364;2022-07-29T03:58:55;19.70;99.90
53599;DHT22;39485;45.702;11.364;2022-07-29T04:01:22;19.70;99.90
53599;DHT22;39485;45.702;11.364;2022-07-29T04:03:49;19.70;99.90
53599;DHT22;39485;45.702;11.364;2022-07-29T04:06:14;19.70;99.90
53599;DHT22;39485;45.702;11.364;2022-07-29T04:08:40;19.70;99.90
53599;DHT22;39485;45.702;11.364;2022-07-29T04:11:06;19.70;99.90
53599;DHT22;39485;45.702;11.364;2022-07-29T04:13:32;19.70;99.90
53599;DHT22;39485;45.702;11.364;2022-07-29T04:15:58;19.60;99.90
53599;DHT22;39485;45.702;11.364;2022-07-29T04:18:24;19.70;99.90
53599;DHT22;39485;45.702;11.364;2022-07-29T04:20:50;19.60;99.90
53599;DHT22;39485;45.702;11.364;2022-07-29T04:23:16;19.60;99.90
53599;DHT22;39485;45.702;11.364;2022-07-29T04:25:42;19.60;99.90
53599;DHT22;39485;45.702;11.364;2022-07-29T04:28:09;19.60;99.90
53599;DHT22;39485;45.702;11.364;2022-07-29T04:30:36;19.70;99.90
53599;DHT22;39485;45.702;11.364;2022-07-29T04:33:05;19.70;99.90
53599;DHT22;39485;45.702;11.364;2022-07-29T04:35:33;19.70;99.90
53599;DHT22;39485;45.702;11.364;2022-07-29T04:37:59;19.80;99.90
53599;DHT22;39485;45.702;11.364;2022-07-29T04:40:24;19.80;99.90
53599;DHT22;39485;45.702;11.364;2022-07-29T04:42:50;19.90;99.90
53599;DHT22;39485;45.702;11.364;2022-07-29T04:45:15;19.90;99.90
53599;DHT22;39485;45.702;11.364;2022-07-29T04:47:41;20.00;99.90
53599;DHT22;39485;45.702;11.364;2022-07-29T04:50:08;20.10;99.90
53599;DHT22;39485;45.702;11.364;2022-07-29T04:52:34;20.10;99.90
53599;DHT22;39485;45.702;11.364;2022-07-29T04:55:02;20.10;99.90
53599;DHT22;39485;45.702;11.364;2022-07-29T04:57:28;20.20;99.90
53599;DHT22;39485;45.702;11.364;2022-07-29T04:59:54;20.30;99.90
53599;DHT22;39485;45.702;11.364;2022-07-29T05:02:19;20.40;99.90
53599;DHT22;39485;45.702;11.364;2022-07-29T05:04:45;20.50;99.90
53599;DHT22;39485;45.702;11.364;2022-07-29T05:07:11;20.70;99.90
53599;DHT22;39485;45.702;11.364;2022-07-29T05:09:36;20.70;99.90
53599;DHT22;39485;45.702;11.364;2022-07-29T05:12:02;20.80;99.90
53599;DHT22;39485;45.702;11.364;2022-07-29T05:14:28;20.80;99.90
53599;DHT22;39485;45.702;11.364;2022-07-29T05:16:53;20.90;99.90
53599;DHT22;39485;45.702;11.364;2022-07-29T05:19:22;20.90;99.90
53599;DHT22;39485;45.702;11.364;2022-07-29T05:21:48;20.90;99.90
53599;DHT22;39485;45.702;11.364;2022-07-29T05:24:13;20.90;99.90
53599;DHT22;39485;45.702;11.364;2022-07-29T05:26:39;20.90;99.90
53599;DHT22;39485;45.702;11.364;2022-07-29T05:29:05;21.00;99.90
53599;DHT22;39485;45.702;11.364;2022-07-29T05:31:31;21.10;99.90
53599;DHT22;39485;45.702;11.364;2022-07-29T05:33:57;21.20;99.90
53599;DHT22;39485;45.702;11.364;2022-07-29T05:36:22;21.40;99.90
53599;DHT22;39485;45.702;11.364;2022-07-29T05:38:48;21.40;99.90
53599;DHT22;39485;45.702;11.364;2022-07-29T05:41:14;21.60;99.90
53599;DHT22;39485;45.702;11.364;2022-07-29T05:43:39;21.70;99.90
53599;DHT22;39485;45.702;11.364;2022-07-29T05:46:05;21.80;99.90
53599;DHT22;39485;45.702;11.364;2022-07-29T05:48:31;21.80;99.90
53599;DHT22;39485;45.702;11.364;2022-07-29T05:50:57;21.90;99.90
53599;DHT22;39485;45.702;11.364;2022-07-29T05:53:23;22.00;99.90
53599;DHT22;39485;45.702;11.364;2022-07-29T05:55:50;22.00;99.90
53599;DHT22;39485;45.702;11.364;2022-07-29T05:58:17;22.00;99.90
53599;DHT22;39485;45.702;11.364;2022-07-29T06:00:43;22.00;99.90
53599;DHT22;39485;45.702;11.364;2022-07-29T06:03:09;22.00;99.90
53599;DHT22;39485;45.702;11.364;2022-07-29T06:05:34;22.10;99.90
53599;DHT22;39485;45.702;11.364;2022-07-29T06:08:00;22.20;99.90
53599;DHT22;39485;45.702;11.364;2022-07-29T06:10:26;22.30;99.90
53599;DHT22;39485;45.702;11.364;2022-07-29T06:12:52;22.50;99.90
53599;DHT22;39485;45.702;11.364;2022-07-29T06:15:18;22.60;99.90
53599;DHT22;39485;45.702;11.364;2022-07-29T06:17:43;22.80;99.90
53599;DHT22;39485;45.702;11.364;2022-07-29T06:20:09;22.90;99.90
53599;DHT22;39485;45.702;11.364;2022-07-29T06:22:35;23.00;99.90
53599;DHT22;39485;45.702;11.364;2022-07-29T06:25:02;23.10;99.90
53599;DHT22;39485;45.702;11.364;2022-07-29T06:27:27;23.30;99.90
53599;DHT22;39485;45.702;11.364;2022-07-29T06:29:53;23.50;99.90
53599;DHT22;39485;45.702;11.364;2022-07-29T06:32:19;23.60;99.90
53599;DHT22;39485;45.702;11.364;2022-07-29T06:34:45;23.80;99.20
53599;DHT22;39485;45.702;11.364;2022-07-29T06:37:10;23.90;99.40
53599;DHT22;39485;45.702;11.364;2022-07-29T06:39:36;24.10;98.90
53599;DHT22;39485;45.702;11.364;2022-07-29T06:42:05;24.20;98.10
53599;DHT22;39485;45.702;11.364;2022-07-29T06:44:31;24.40;97.50
53599;DHT22;39485;45.702;11.364;2022-07-29T06:46:59;24.70;97.00
53599;DHT22;39485;45.702;11.364;2022-07-29T06:49:25;24.90;96.50
53599;DHT22;39485;45.702;11.364;2022-07-29T06:51:52;25.10;96.00
53599;DHT22;39485;45.702;11.364;2022-07-29T06:54:18;25.30;95.30
53599;DHT22;39485;45.702;11.364;2022-07-29T06:56:43;25.60;94.80
53599;DHT22;39485;45.702;11.364;2022-07-29T06:59:10;25.80;94.70
53599;DHT22;39485;45.702;11.364;2022-07-29T07:01:40;25.80;94.60
53599;DHT22;39485;45.702;11.364;2022-07-29T07:04:06;25.80;94.60
53599;DHT22;39485;45.702;11.364;2022-07-29T07:06:34;25.90;94.60
53599;DHT22;39485;45.702;11.364;2022-07-29T07:09:00;26.10;94.40
53599;DHT22;39485;45.702;11.364;2022-07-29T07:11:26;26.20;94.10
53599;DHT22;39485;45.702;11.364;2022-07-29T07:13:51;26.30;93.70
53599;DHT22;39485;45.702;11.364;2022-07-29T07:16:17;26.40;93.60
53599;DHT22;39485;45.702;11.364;2022-07-29T07:18:43;26.50;93.10
53599;DHT22;39485;45.702;11.364;2022-07-29T07:21:11;26.50;93.00
53599;DHT22;39485;45.702;11.364;2022-07-29T07:23:36;26.50;92.70
53599;DHT22;39485;45.702;11.364;2022-07-29T07:26:02;26.50;92.20
53599;DHT22;39485;45.702;11.364;2022-07-29T07:28:28;26.50;91.90
53599;DHT22;39485;45.702;11.364;2022-07-29T07:30:54;26.60;91.70
53599;DHT22;39485;45.702;11.364;2022-07-29T07:33:20;26.60;91.20
53599;DHT22;39485;45.702;11.364;2022-07-29T07:35:46;26.60;90.90
53599;DHT22;39485;45.702;11.364;2022-07-29T07:38:12;26.60;90.60
53599;DHT22;39485;45.702;11.364;2022-07-29T07:40:37;26.70;90.30
53599;DHT22;39485;45.702;11.364;2022-07-29T07:43:03;26.70;89.50
53599;DHT22;39485;45.702;11.364;2022-07-29T07:45:29;26.70;88.10
53599;DHT22;39485;45.702;11.364;2022-07-29T07:47:54;26.80;87.80
53599;DHT22;39485;45.702;11.364;2022-07-29T07:50:20;26.90;87.50
53599;DHT22;39485;45.702;11.364;2022-07-29T07:52:54;27.00;85.70
53599;DHT22;39485;45.702;11.364;2022-07-29T07:55:23;27.10;84.50
53599;DHT22;39485;45.702;11.364;2022-07-29T07:57:49;27.20;84.50
53599;DHT22;39485;45.702;11.364;2022-07-29T08:00:16;27.20;84.20
53599;DHT22;39485;45.702;11.364;2022-07-29T08:02:42;27.30;83.40
53599;DHT22;39485;45.702;11.364;2022-07-29T08:05:08;27.30;82.30
53599;DHT22;39485;45.702;11.364;2022-07-29T08:07:34;27.40;82.10
53599;DHT22;39485;45.702;11.364;2022-07-29T08:10:00;27.50;81.50
53599;DHT22;39485;45.702;11.364;2022-07-29T08:12:25;27.60;81.10
53599;DHT22;39485;45.702;11.364;2022-07-29T08:14:51;27.80;81.20
53599;DHT22;39485;45.702;11.364;2022-07-29T08:17:17;27.80;80.70
53599;DHT22;39485;45.702;11.364;2022-07-29T08:19:42;27.90;79.50
53599;DHT22;39485;45.702;11.364;2022-07-29T08:22:08;28.00;78.50
53599;DHT22;39485;45.702;11.364;2022-07-29T08:24:34;28.10;77.80
53599;DHT22;39485;45.702;11.364;2022-07-29T08:27:12;28.20;76.50
53599;DHT22;39485;45.702;11.364;2022-07-29T08:29:38;28.30;75.20
53599;DHT22;39485;45.702;11.364;2022-07-29T08:32:05;28.40;74.40
53599;DHT22;39485;45.702;11.364;2022-07-29T08:34:31;28.50;73.80
53599;DHT22;39485;45.702;11.364;2022-07-29T08:36:57;28.60;73.00
53599;DHT22;39485;45.702;11.364;2022-07-29T08:39:24;28.70;72.30
53599;DHT22;39485;45.702;11.364;2022-07-29T08:41:50;28.70;71.80
53599;DHT22;39485;45.702;11.364;2022-07-29T08:44:19;28.80;71.60
53599;DHT22;39485;45.702;11.364;2022-07-29T08:46:47;28.90;71.10
53599;DHT22;39485;45.702;11.364;2022-07-29T08:49:13;28.90;70.50
53599;DHT22;39485;45.702;11.364;2022-07-29T08:51:40;29.00;69.60
53599;DHT22;39485;45.702;11.364;2022-07-29T08:54:08;29.00;69.30
53599;DHT22;39485;45.702;11.364;2022-07-29T08:56:35;29.10;69.00
53599;DHT22;39485;45.702;11.364;2022-07-29T08:59:04;29.20;69.10
53599;DHT22;39485;45.702;11.364;2022-07-29T09:01:33;29.30;68.70
53599;DHT22;39485;45.702;11.364;2022-07-29T09:04:01;29.30;67.40
53599;DHT22;39485;45.702;11.364;2022-07-29T09:06:31;29.30;67.30
53599;DHT22;39485;45.702;11.364;2022-07-29T09:08:59;29.40;67.50
53599;DHT22;39485;45.702;11.364;2022-07-29T09:11:26;29.50;67.00
53599;DHT22;39485;45.702;11.364;2022-07-29T09:13:52;29.50;66.60
53599;DHT22;39485;45.702;11.364;2022-07-29T09:16:18;29.50;66.10
53599;DHT22;39485;45.702;11.364;2022-07-29T09:18:45;29.50;65.20
53599;DHT22;39485;45.702;11.364;2022-07-29T09:21:13;29.60;65.10
53599;DHT22;39485;45.702;11.364;2022-07-29T09:24:09;29.60;65.40
53599;DHT22;39485;45.702;11.364;2022-07-29T09:26:43;29.70;65.80
53599;DHT22;39485;45.702;11.364;2022-07-29T09:29:13;29.80;65.90
53599;DHT22;39485;45.702;11.364;2022-07-29T09:31:41;29.80;65.70
53599;DHT22;39485;45.702;11.364;2022-07-29T09:34:08;29.80;65.20
53599;DHT22;39485;45.702;11.364;2022-07-29T09:36:41;29.90;65.60
53599;DHT22;39485;45.702;11.364;2022-07-29T09:39:07;30.00;64.80
53599;DHT22;39485;45.702;11.364;2022-07-29T09:41:49;29.90;64.60
53599;DHT22;39485;45.702;11.364;2022-07-29T09:44:18;29.90;65.00
53599;DHT22;39485;45.702;11.364;2022-07-29T09:46:59;30.00;64.70
53599;DHT22;39485;45.702;11.364;2022-07-29T09:49:28;30.00;64.00
53599;DHT22;39485;45.702;11.364;2022-07-29T09:54:28;30.00;63.90
53599;DHT22;39485;45.702;11.364;2022-07-29T09:56:55;30.00;64.20
53599;DHT22;39485;45.702;11.364;2022-07-29T09:59:21;30.10;64.40
53599;DHT22;39485;45.702;11.364;2022-07-29T10:01:51;30.10;64.70
53599;DHT22;39485;45.702;11.364;2022-07-29T10:04:18;30.20;64.40
53599;DHT22;39485;45.702;11.364;2022-07-29T10:07:01;30.30;64.20
53599;DHT22;39485;45.702;11.364;2022-07-29T10:09:27;30.30;64.10
53599;DHT22;39485;45.702;11.364;2022-07-29T10:12:10;30.30;63.90
53599;DHT22;39485;45.702;11.364;2022-07-29T10:14:37;30.30;63.60
53599;DHT22;39485;45.702;11.364;2022-07-29T10:17:05;30.40;63.50
53599;DHT22;39485;45.702;11.364;2022-07-29T10:19:32;30.40;63.50
53599;DHT22;39485;45.702;11.364;2022-07-29T10:21:59;30.40;63.50
53599;DHT22;39485;45.702;11.364;2022-07-29T10:24:29;30.40;63.40
53599;DHT22;39485;45.702;11.364;2022-07-29T10:26:57;30.40;63.70
53599;DHT22;39485;45.702;11.364;2022-07-29T10:29:23;30.50;64.00
53599;DHT22;39485;45.702;11.364;2022-07-29T10:37:16;30.60;63.20
53599;DHT22;39485;45.702;11.364;2022-07-29T10:43:01;30.60;63.20
53599;DHT22;39485;45.702;11.364;2022-07-29T10:45:33;30.70;63.10
53599;DHT22;39485;45.702;11.364;2022-07-29T10:48:05;30.70;63.00
53599;DHT22;39485;45.702;11.364;2022-07-29T10:50:54;30.70;63.00
53599;DHT22;39485;45.702;11.364;2022-07-29T10:53:21;30.70;63.40
53599;DHT22;39485;45.702;11.364;2022-07-29T10:55:47;30.70;63.60
53599;DHT22;39485;45.702;11.364;2022-07-29T10:58:20;30.80;63.90
53599;DHT22;39485;45.702;11.364;2022-07-29T11:00:48;30.80;64.00
53599;DHT22;39485;45.702;11.364;2022-07-29T11:03:43;30.90;63.80
53599;DHT22;39485;45.702;11.364;2022-07-29T11:06:10;30.90;63.20
53599;DHT22;39485;45.702;11.364;2022-07-29T11:08:36;30.90;63.20
53599;DHT22;39485;45.702;11.364;2022-07-29T11:13:52;30.90;63.60
53599;DHT22;39485;45.702;11.364;2022-07-29T11:16:21;30.90;63.30
53599;DHT22;39485;45.702;11.364;2022-07-29T11:21:43;31.00;63.90
53599;DHT22;39485;45.702;11.364;2022-07-29T11:24:23;31.10;63.80
53599;DHT22;39485;45.702;11.364;2022-07-29T11:27:15;31.20;63.60
53599;DHT22;39485;45.702;11.364;2022-07-29T11:32:16;31.30;63.30
53599;DHT22;39485;45.702;11.364;2022-07-29T11:34:45;31.30;63.30
53599;DHT22;39485;45.702;11.364;2022-07-29T11:45:10;31.50;62.70
53599;DHT22;39485;45.702;11.364;2022-07-29T11:50:16;31.60;62.90
53599;DHT22;39485;45.702;11.364;2022-07-29T11:52:46;31.70;63.20
53599;DHT22;39485;45.702;11.364;2022-07-29T11:55:23;31.80;63.10
53599;DHT22;39485;45.702;11.364;2022-07-29T11:57:50;31.80;62.70
53599;DHT22;39485;45.702;11.364;2022-07-29T12:00:31;31.80;62.20
53599;DHT22;39485;45.702;11.364;2022-07-29T12:02:59;31.80;63.10
53599;DHT22;39485;45.702;11.364;2022-07-29T12:05:51;31.80;62.70
53599;DHT22;39485;45.702;11.364;2022-07-29T12:08:22;31.80;63.20
53599;DHT22;39485;45.702;11.364;2022-07-29T12:10:49;31.70;62.40
53599;DHT22;39485;45.702;11.364;2022-07-29T12:13:16;31.70;62.60
53599;DHT22;39485;45.702;11.364;2022-07-29T12:15:50;31.70;62.60
53599;DHT22;39485;45.702;11.364;2022-07-29T12:18:18;31.70;62.70
53599;DHT22;39485;45.702;11.364;2022-07-29T12:20:46;31.80;62.80
53599;DHT22;39485;45.702;11.364;2022-07-29T12:23:12;31.80;62.70
53599;DHT22;39485;45.702;11.364;2022-07-29T12:25:39;31.80;62.90
53599;DHT22;39485;45.702;11.364;2022-07-29T12:28:08;31.70;62.90
53599;DHT22;39485;45.702;11.364;2022-07-29T12:30:48;31.70;62.80
53599;DHT22;39485;45.702;11.364;2022-07-29T12:33:18;31.70;63.00
53599;DHT22;39485;45.702;11.364;2022-07-29T12:35:49;31.60;62.80
53599;DHT22;39485;45.702;11.364;2022-07-29T12:38:16;31.70;62.90
53599;DHT22;39485;45.702;11.364;2022-07-29T12:40:42;31.60;62.60
53599;DHT22;39485;45.702;11.364;2022-07-29T12:43:19;31.60;62.50
53599;DHT22;39485;45.702;11.364;2022-07-29T12:45:48;31.70;62.50
53599;DHT22;39485;45.702;11.364;2022-07-29T12:48:16;31.60;62.40
53599;DHT22;39485;45.702;11.364;2022-07-29T12:50:58;31.60;62.50
53599;DHT22;39485;45.702;11.364;2022-07-29T12:53:24;31.50;62.50
53599;DHT22;39485;45.702;11.364;2022-07-29T12:55:52;31.50;62.50
53599;DHT22;39485;45.702;11.364;2022-07-29T13:01:16;31.40;62.90
53599;DHT22;39485;45.702;11.364;2022-07-29T13:06:47;31.30;63.10
53599;DHT22;39485;45.702;11.364;2022-07-29T13:09:19;31.20;63.10
53599;DHT22;39485;45.702;11.364;2022-07-29T13:11:48;31.20;63.10
53599;DHT22;39485;45.702;11.364;2022-07-29T13:14:33;31.20;63.40
53599;DHT22;39485;45.702;11.364;2022-07-29T13:17:04;31.20;65.00
53599;DHT22;39485;45.702;11.364;2022-07-29T13:19:35;31.20;66.60
53599;DHT22;39485;45.702;11.364;2022-07-29T13:22:02;31.10;69.30
53599;DHT22;39485;45.702;11.364;2022-07-29T13:24:27;31.00;69.10
53599;DHT22;39485;45.702;11.364;2022-07-29T13:26:53;30.90;68.30
53599;DHT22;39485;45.702;11.364;2022-07-29T13:29:19;30.80;69.30
53599;DHT22;39485;45.702;11.364;2022-07-29T13:31:44;30.80;71.60
53599;DHT22;39485;45.702;11.364;2022-07-29T13:34:10;30.70;73.90
53599;DHT22;39485;45.702;11.364;2022-07-29T13:36:36;30.60;74.40
53599;DHT22;39485;45.702;11.364;2022-07-29T13:39:02;30.40;74.00
53599;DHT22;39485;45.702;11.364;2022-07-29T13:41:28;30.30;74.00
53599;DHT22;39485;45.702;11.364;2022-07-29T13:43:54;30.20;73.50
53599;DHT22;39485;45.702;11.364;2022-07-29T13:46:20;30.10;73.10
53599;DHT22;39485;45.702;11.364;2022-07-29T13:48:46;29.90;72.40
53599;DHT22;39485;45.702;11.364;2022-07-29T13:51:11;29.90;72.60
53599;DHT22;39485;45.702;11.364;2022-07-29T13:53:37;29.80;72.60
53599;DHT22;39485;45.702;11.364;2022-07-29T13:56:03;29.80;72.40
53599;DHT22;39485;45.702;11.364;2022-07-29T13:58:32;29.70;72.60
53599;DHT22;39485;45.702;11.364;2022-07-29T14:00:58;29.80;72.90
53599;DHT22;39485;45.702;11.364;2022-07-29T14:03:24;29.70;72.80
53599;DHT22;39485;45.702;11.364;2022-07-29T14:05:50;29.70;73.20
53599;DHT22;39485;45.702;11.364;2022-07-29T14:08:16;29.70;74.70
53599;DHT22;39485;45.702;11.364;2022-07-29T14:10:41;29.80;77.50
53599;DHT22;39485;45.702;11.364;2022-07-29T14:13:07;29.80;79.30
53599;DHT22;39485;45.702;11.364;2022-07-29T14:15:33;29.70;80.10
53599;DHT22;39485;45.702;11.364;2022-07-29T14:18:00;29.60;79.50
53599;DHT22;39485;45.702;11.364;2022-07-29T14:20:26;29.40;79.20
53599;DHT22;39485;45.702;11.364;2022-07-29T14:22:53;29.40;79.60
53599;DHT22;39485;45.702;11.364;2022-07-29T14:25:19;29.30;81.60
53599;DHT22;39485;45.702;11.364;2022-07-29T14:27:45;29.20;82.00
53599;DHT22;39485;45.702;11.364;2022-07-29T14:30:11;29.20;83.80
53599;DHT22;39485;45.702;11.364;2022-07-29T14:32:36;29.10;84.90
53599;DHT22;39485;45.702;11.364;2022-07-29T14:35:02;29.00;85.70
53599;DHT22;39485;45.702;11.364;2022-07-29T14:37:28;29.00;86.20
53599;DHT22;39485;45.702;11.364;2022-07-29T14:39:55;28.90;86.30
53599;DHT22;39485;45.702;11.364;2022-07-29T14:42:25;28.80;85.50
53599;DHT22;39485;45.702;11.364;2022-07-29T14:44:50;28.80;85.20
53599;DHT22;39485;45.702;11.364;2022-07-29T14:47:16;28.70;85.00
53599;DHT22;39485;45.702;11.364;2022-07-29T14:49:41;28.60;83.00
53599;DHT22;39485;45.702;11.364;2022-07-29T14:52:07;28.60;83.30
53599;DHT22;39485;45.702;11.364;2022-07-29T14:54:33;28.60;83.80
53599;DHT22;39485;45.702;11.364;2022-07-29T14:56:59;28.60;84.60
53599;DHT22;39485;45.702;11.364;2022-07-29T14:59:25;28.60;84.50
53599;DHT22;39485;45.702;11.364;2022-07-29T15:01:51;28.60;84.20
53599;DHT22;39485;45.702;11.364;2022-07-29T15:04:17;28.60;84.20
53599;DHT22;39485;45.702;11.364;2022-07-29T15:06:42;28.60;84.30
53599;DHT22;39485;45.702;11.364;2022-07-29T15:09:08;28.70;84.60
53599;DHT22;39485;45.702;11.364;2022-07-29T15:11:34;28.60;84.40
53599;DHT22;39485;45.702;11.364;2022-07-29T15:13:59;28.60;84.20
53599;DHT22;39485;45.702;11.364;2022-07-29T15:16:25;28.60;83.70
53599;DHT22;39485;45.702;11.364;2022-07-29T15:18:50;28.60;83.80
53599;DHT22;39485;45.702;11.364;2022-07-29T15:21:16;28.50;83.40
53599;DHT22;39485;45.702;11.364;2022-07-29T15:23:42;28.50;83.40
53599;DHT22;39485;45.702;11.364;2022-07-29T15:26:07;28.50;83.60
53599;DHT22;39485;45.702;11.364;2022-07-29T15:28:33;28.50;84.00
53599;DHT22;39485;45.702;11.364;2022-07-29T15:30:59;28.50;83.50
53599;DHT22;39485;45.702;11.364;2022-07-29T15:33:25;28.40;82.50
53599;DHT22;39485;45.702;11.364;2022-07-29T15:35:51;28.40;82.30
53599;DHT22;39485;45.702;11.364;2022-07-29T15:38:17;28.50;82.00
53599;DHT22;39485;45.702;11.364;2022-07-29T15:40:43;28.40;82.10
53599;DHT22;39485;45.702;11.364;2022-07-29T15:43:09;28.40;82.00
53599;DHT22;39485;45.702;11.364;2022-07-29T15:45:39;28.40;81.90
53599;DHT22;39485;45.702;11.364;2022-07-29T15:48:06;28.40;81.50
53599;DHT22;39485;45.702;11.364;2022-07-29T15:50:33;28.40;81.40
53599;DHT22;39485;45.702;11.364;2022-07-29T15:52:59;28.40;80.90
53599;DHT22;39485;45.702;11.364;2022-07-29T15:55:25;28.40;80.50
53599;DHT22;39485;45.702;11.364;2022-07-29T15:57:50;28.40;80.30
53599;DHT22;39485;45.702;11.364;2022-07-29T16:00:16;28.40;79.90
53599;DHT22;39485;45.702;11.364;2022-07-29T16:02:42;28.40;80.00
53599;DHT22;39485;45.702;11.364;2022-07-29T16:05:09;28.40;79.70
53599;DHT22;39485;45.702;11.364;2022-07-29T16:07:34;28.40;79.60
53599;DHT22;39485;45.702;11.364;2022-07-29T16:10:00;28.50;79.50